sensor_id;sensor_type;location;lat;lon;timestamp;P1;durP1;ratioP1;P2;durP2;ratioP2
24485;SDS011;13449;49.374;8.584;2023-02-18T00:01:49;3.28;;;2.60;;
24485;SDS011;13449;49.374;8.584;2023-02-18T00:04:18;8.68;;;4.72;;
24485;SDS011;13449;49.374;8.584;2023-02-18T00:06:44;4.15;;;2.83;;
24485;SDS011;13449;49.374;8.584;2023-02-18T00:09:14;7.10;;;3.03;;
24485;SDS011;13449;49.374;8.584;2023-02-18T00:11:43;4.25;;;3.00;;
24485;SDS011;13449;49.374;8.584;2023-02-18T00:14:17;4.85;;;2.88;;
24485;SDS011;13449;49.374;8.584;2023-02-18T00:16:44;5.65;;;2.80;;
24485;SDS011;13449;49.374;8.584;2023-02-18T00:19:25;5.13;;;2.85;;
24485;SDS011;13449;49.374;8.584;2023-02-18T00:21:54;4.15;;;2.45;;
24485;SDS011;13449;49.374;8.584;2023-02-18T00:24:39;6.80;;;3.10;;
24485;SDS011;13449;49.374;8.584;2023-02-18T00:27:06;4.75;;;2.72;;
24485;SDS011;13449;49.374;8.584;2023-02-18T00:29:32;6.28;;;3.22;;
24485;SDS011;13449;49.374;8.584;2023-02-18T00:31:59;5.13;;;2.88;;
24485;SDS011;13449;49.374;8.584;2023-02-18T00:34:30;4.40;;;2.97;;
24485;SDS011;13449;49.374;8.584;2023-02-18T00:36:59;7.53;;;2.80;;
24485;SDS011;13449;49.374;8.584;2023-02-18T00:39:26;4.18;;;2.92;;
24485;SDS011;13449;49.374;8.584;2023-02-18T00:41:52;3.55;;;2.63;;
24485;SDS011;13449;49.374;8.584;2023-02-18T00:44:19;5.10;;;2.55;;
24485;SDS011;13449;49.374;8.584;2023-02-18T00:46:51;3.65;;;2.40;;
24485;SDS011;13449;49.374;8.584;2023-02-18T00:49:18;4.93;;;3.00;;
24485;SDS011;13449;49.374;8.584;2023-02-18T00:51:47;4.25;;;2.75;;
24485;SDS011;13449;49.374;8.584;2023-02-18T00:54:16;4.07;;;3.03;;
24485;SDS011;13449;49.374;8.584;2023-02-18T00:56:45;5.80;;;3.22;;
24485;SDS011;13449;49.374;8.584;2023-02-18T00:59:16;5.75;;;3.40;;
24485;SDS011;13449;49.374;8.584;2023-02-18T01:01:45;4.65;;;3.05;;
24485;SDS011;13449;49.374;8.584;2023-02-18T01:04:20;4.35;;;2.90;;
24485;SDS011;13449;49.374;8.584;2023-02-18T01:06:46;4.28;;;2.85;;
24485;SDS011;13449;49.374;8.584;2023-02-18T01:09:13;4.43;;;3.00;;
24485;SDS011;13449;49.374;8.584;2023-02-18T01:11:42;3.45;;;2.88;;
24485;SDS011;13449;49.374;8.584;2023-02-18T01:14:13;3.90;;;2.80;;
24485;SDS011;13449;49.374;8.584;2023-02-18T01:16:43;3.35;;;2.42;;
24485;SDS011;13449;49.374;8.584;2023-02-18T01:19:13;4.78;;;2.40;;
24485;SDS011;13449;49.374;8.584;2023-02-18T01:21:45;7.38;;;2.92;;
24485;SDS011;13449;49.374;8.584;2023-02-18T01:24:14;2.97;;;2.67;;
24485;SDS011;13449;49.374;8.584;2023-02-18T01:26:40;3.65;;;2.67;;
24485;SDS011;13449;49.374;8.584;2023-02-18T01:29:15;3.67;;;2.85;;
24485;SDS011;13449;49.374;8.584;2023-02-18T01:31:42;2.30;;;2.10;;
24485;SDS011;13449;49.374;8.584;2023-02-18T01:34:14;5.97;;;2.80;;
24485;SDS011;13449;49.374;8.584;2023-02-18T01:36:40;3.85;;;3.08;;
24485;SDS011;13449;49.374;8.584;2023-02-18T01:39:07;5.50;;;2.45;;
24485;SDS011;13449;49.374;8.584;2023-02-18T01:41:34;6.05;;;2.65;;
24485;SDS011;13449;49.374;8.584;2023-02-18T01:44:17;4.35;;;2.47;;
24485;SDS011;13449;49.374;8.584;2023-02-18T01:46:50;2.75;;;2.25;;
24485;SDS011;13449;49.374;8.584;2023-02-18T01:49:20;3.58;;;2.80;;
24485;SDS011;13449;49.374;8.584;2023-02-18T01:51:59;4.82;;;2.83;;
24485;SDS011;13449;49.374;8.584;2023-02-18T01:54:35;3.30;;;2.75;;
24485;SDS011;13449;49.374;8.584;2023-02-18T01:59:40;2.58;;;2.28;;
24485;SDS011;13449;49.374;8.584;2023-02-18T02:02:12;3.83;;;2.53;;
24485;SDS011;13449;49.374;8.584;2023-02-18T02:04:42;5.60;;;2.33;;
24485;SDS011;13449;49.374;8.584;2023-02-18T02:07:09;3.60;;;2.63;;
24485;SDS011;13449;49.374;8.584;2023-02-18T02:09:36;3.50;;;2.50;;
24485;SDS011;13449;49.374;8.584;2023-02-18T02:18:03;4.18;;;2.58;;
24485;SDS011;13449;49.374;8.584;2023-02-18T02:27:02;3.90;;;2.63;;
24485;SDS011;13449;49.374;8.584;2023-02-18T02:35:30;3.17;;;2.67;;
24485;SDS011;13449;49.374;8.584;2023-02-18T02:38:05;3.28;;;2.42;;
24485;SDS011;13449;49.374;8.584;2023-02-18T02:40:45;4.07;;;3.20;;
24485;SDS011;13449;49.374;8.584;2023-02-18T02:43:19;3.17;;;2.65;;
24485;SDS011;13449;49.374;8.584;2023-02-18T02:45:53;3.70;;;2.55;;
24485;SDS011;13449;49.374;8.584;2023-02-18T02:51:19;2.90;;;2.60;;
24485;SDS011;13449;49.374;8.584;2023-02-18T02:53:52;8.15;;;2.53;;
24485;SDS011;13449;49.374;8.584;2023-02-18T02:56:21;3.03;;;2.40;;
24485;SDS011;13449;49.374;8.584;2023-02-18T02:59:02;3.70;;;2.25;;
24485;SDS011;13449;49.374;8.584;2023-02-18T03:10:04;2.47;;;2.25;;
24485;SDS011;13449;49.374;8.584;2023-02-18T03:13:29;2.50;;;2.30;;
24485;SDS011;13449;49.374;8.584;2023-02-18T03:16:00;2.47;;;2.05;;
24485;SDS011;13449;49.374;8.584;2023-02-18T03:18:58;2.72;;;2.40;;
24485;SDS011;13449;49.374;8.584;2023-02-18T03:21:39;3.42;;;2.25;;
24485;SDS011;13449;49.374;8.584;2023-02-18T03:24:12;4.32;;;2.97;;
24485;SDS011;13449;49.374;8.584;2023-02-18T03:26:53;3.05;;;2.30;;
24485;SDS011;13449;49.374;8.584;2023-02-18T03:29:26;2.60;;;2.40;;
24485;SDS011;13449;49.374;8.584;2023-02-18T03:31:57;4.53;;;2.97;;
24485;SDS011;13449;49.374;8.584;2023-02-18T03:34:29;4.22;;;2.83;;
24485;SDS011;13449;49.374;8.584;2023-02-18T03:36:59;5.63;;;2.47;;
24485;SDS011;13449;49.374;8.584;2023-02-18T03:39:28;3.08;;;2.65;;
24485;SDS011;13449;49.374;8.584;2023-02-18T03:41:58;3.42;;;2.83;;
24485;SDS011;13449;49.374;8.584;2023-02-18T03:44:30;2.95;;;2.72;;
24485;SDS011;13449;49.374;8.584;2023-02-18T03:47:03;4.05;;;3.22;;
24485;SDS011;13449;49.374;8.584;2023-02-18T03:49:29;4.47;;;2.50;;
24485;SDS011;13449;49.374;8.584;2023-02-18T03:51:55;3.15;;;2.65;;
24485;SDS011;13449;49.374;8.584;2023-02-18T03:54:22;6.13;;;3.10;;
24485;SDS011;13449;49.374;8.584;2023-02-18T03:56:51;2.95;;;2.47;;
24485;SDS011;13449;49.374;8.584;2023-02-18T03:59:22;4.38;;;3.03;;
24485;SDS011;13449;49.374;8.584;2023-02-18T04:01:49;5.78;;;2.97;;
24485;SDS011;13449;49.374;8.584;2023-02-18T04:04:17;5.45;;;2.80;;
24485;SDS011;13449;49.374;8.584;2023-02-18T04:06:44;3.28;;;2.97;;
24485;SDS011;13449;49.374;8.584;2023-02-18T04:09:18;3.17;;;2.92;;
24485;SDS011;13449;49.374;8.584;2023-02-18T04:11:46;3.00;;;2.78;;
24485;SDS011;13449;49.374;8.584;2023-02-18T04:14:13;4.88;;;3.33;;
24485;SDS011;13449;49.374;8.584;2023-02-18T04:16:40;4.22;;;3.17;;
24485;SDS011;13449;49.374;8.584;2023-02-18T04:19:16;6.25;;;3.42;;
24485;SDS011;13449;49.374;8.584;2023-02-18T04:21:43;3.47;;;3.00;;
24485;SDS011;13449;49.374;8.584;2023-02-18T04:24:09;6.05;;;4.32;;
24485;SDS011;13449;49.374;8.584;2023-02-18T04:26:36;9.27;;;3.70;;
24485;SDS011;13449;49.374;8.584;2023-02-18T04:29:02;5.97;;;3.92;;
24485;SDS011;13449;49.374;8.584;2023-02-18T04:31:35;4.78;;;3.53;;
24485;SDS011;13449;49.374;8.584;2023-02-18T04:34:01;4.32;;;3.60;;
24485;SDS011;13449;49.374;8.584;2023-02-18T04:36:30;5.85;;;3.90;;
24485;SDS011;13449;49.374;8.584;2023-02-18T04:38:59;5.38;;;4.38;;
24485;SDS011;13449;49.374;8.584;2023-02-18T04:41:26;5.20;;;3.22;;
24485;SDS011;13449;49.374;8.584;2023-02-18T04:44:03;5.25;;;4.00;;
24485;SDS011;13449;49.374;8.584;2023-02-18T04:46:35;6.78;;;3.65;;
24485;SDS011;13449;49.374;8.584;2023-02-18T04:49:13;5.18;;;4.15;;
24485;SDS011;13449;49.374;8.584;2023-02-18T04:51:40;10.65;;;4.03;;
24485;SDS011;13449;49.374;8.584;2023-02-18T04:54:09;6.15;;;4.05;;
24485;SDS011;13449;49.374;8.584;2023-02-18T04:56:35;7.13;;;3.92;;
24485;SDS011;13449;49.374;8.584;2023-02-18T04:59:02;7.40;;;4.38;;
24485;SDS011;13449;49.374;8.584;2023-02-18T05:01:29;3.80;;;3.42;;
24485;SDS011;13449;49.374;8.584;2023-02-18T05:03:56;5.32;;;4.22;;
24485;SDS011;13449;49.374;8.584;2023-02-18T05:06:23;5.63;;;4.13;;
24485;SDS011;13449;49.374;8.584;2023-02-18T05:08:49;4.78;;;3.92;;
24485;SDS011;13449;49.374;8.584;2023-02-18T05:11:18;13.00;;;4.53;;
24485;SDS011;13449;49.374;8.584;2023-02-18T05:13:45;5.95;;;4.45;;
24485;SDS011;13449;49.374;8.584;2023-02-18T05:16:11;6.00;;;4.45;;
24485;SDS011;13449;49.374;8.584;2023-02-18T05:18:41;5.55;;;4.25;;
24485;SDS011;13449;49.374;8.584;2023-02-18T05:21:08;6.80;;;4.43;;
24485;SDS011;13449;49.374;8.584;2023-02-18T05:23:35;7.28;;;4.88;;
24485;SDS011;13449;49.374;8.584;2023-02-18T05:26:01;5.72;;;4.47;;
24485;SDS011;13449;49.374;8.584;2023-02-18T05:28:28;10.93;;;4.15;;
24485;SDS011;13449;49.374;8.584;2023-02-18T05:30:55;6.07;;;4.50;;
24485;SDS011;13449;49.374;8.584;2023-02-18T05:33:22;6.15;;;4.82;;
24485;SDS011;13449;49.374;8.584;2023-02-18T05:35:51;7.45;;;4.20;;
24485;SDS011;13449;49.374;8.584;2023-02-18T05:38:23;8.00;;;5.50;;
24485;SDS011;13449;49.374;8.584;2023-02-18T05:40:49;9.25;;;5.32;;
24485;SDS011;13449;49.374;8.584;2023-02-18T05:43:16;10.60;;;5.18;;
24485;SDS011;13449;49.374;8.584;2023-02-18T05:45:43;15.55;;;7.03;;
24485;SDS011;13449;49.374;8.584;2023-02-18T05:48:11;9.88;;;6.00;;
24485;SDS011;13449;49.374;8.584;2023-02-18T05:50:37;21.50;;;11.30;;
24485;SDS011;13449;49.374;8.584;2023-02-18T05:53:12;10.38;;;6.03;;
24485;SDS011;13449;49.374;8.584;2023-02-18T05:55:45;9.02;;;5.28;;
24485;SDS011;13449;49.374;8.584;2023-02-18T05:58:11;6.32;;;4.53;;
24485;SDS011;13449;49.374;8.584;2023-02-18T06:00:44;9.65;;;5.07;;
24485;SDS011;13449;49.374;8.584;2023-02-18T06:03:15;7.65;;;5.53;;
24485;SDS011;13449;49.374;8.584;2023-02-18T06:05:41;7.03;;;4.18;;
24485;SDS011;13449;49.374;8.584;2023-02-18T06:08:11;7.18;;;5.00;;
24485;SDS011;13449;49.374;8.584;2023-02-18T06:10:40;6.38;;;4.38;;
24485;SDS011;13449;49.374;8.584;2023-02-18T06:13:15;6.72;;;4.45;;
24485;SDS011;13449;49.374;8.584;2023-02-18T06:15:50;6.20;;;4.18;;
24485;SDS011;13449;49.374;8.584;2023-02-18T06:18:20;4.50;;;3.50;;
24485;SDS011;13449;49.374;8.584;2023-02-18T06:20:47;7.60;;;4.28;;
24485;SDS011;13449;49.374;8.584;2023-02-18T06:23:14;7.85;;;4.68;;
24485;SDS011;13449;49.374;8.584;2023-02-18T06:25:49;6.53;;;3.90;;
24485;SDS011;13449;49.374;8.584;2023-02-18T06:28:16;5.55;;;4.32;;
24485;SDS011;13449;49.374;8.584;2023-02-18T06:30:48;8.57;;;4.03;;
24485;SDS011;13449;49.374;8.584;2023-02-18T06:33:15;4.80;;;3.88;;
24485;SDS011;13449;49.374;8.584;2023-02-18T06:35:50;3.85;;;3.38;;
24485;SDS011;13449;49.374;8.584;2023-02-18T06:38:24;5.88;;;3.80;;
24485;SDS011;13449;49.374;8.584;2023-02-18T06:40:53;7.30;;;3.28;;
24485;SDS011;13449;49.374;8.584;2023-02-18T06:43:22;6.47;;;4.32;;
24485;SDS011;13449;49.374;8.584;2023-02-18T06:45:54;5.50;;;4.32;;
24485;SDS011;13449;49.374;8.584;2023-02-18T06:48:20;6.85;;;4.30;;
24485;SDS011;13449;49.374;8.584;2023-02-18T06:50:50;5.65;;;4.13;;
24485;SDS011;13449;49.374;8.584;2023-02-18T06:53:19;6.88;;;3.47;;
24485;SDS011;13449;49.374;8.584;2023-02-18T06:55:48;6.13;;;4.03;;
24485;SDS011;13449;49.374;8.584;2023-02-18T06:58:18;4.20;;;3.38;;
24485;SDS011;13449;49.374;8.584;2023-02-18T07:00:45;8.00;;;3.55;;
24485;SDS011;13449;49.374;8.584;2023-02-18T07:03:13;4.65;;;3.33;;
24485;SDS011;13449;49.374;8.584;2023-02-18T07:05:42;6.78;;;3.10;;
24485;SDS011;13449;49.374;8.584;2023-02-18T07:08:11;3.75;;;3.22;;
24485;SDS011;13449;49.374;8.584;2023-02-18T07:10:40;4.60;;;3.15;;
24485;SDS011;13449;49.374;8.584;2023-02-18T07:13:09;4.78;;;3.28;;
24485;SDS011;13449;49.374;8.584;2023-02-18T07:15:41;6.63;;;3.42;;
24485;SDS011;13449;49.374;8.584;2023-02-18T07:18:11;5.90;;;3.33;;
24485;SDS011;13449;49.374;8.584;2023-02-18T07:20:40;4.97;;;3.20;;
24485;SDS011;13449;49.374;8.584;2023-02-18T07:23:07;3.45;;;3.00;;
24485;SDS011;13449;49.374;8.584;2023-02-18T07:25:39;2.63;;;2.42;;
24485;SDS011;13449;49.374;8.584;2023-02-18T07:28:06;3.25;;;2.95;;
24485;SDS011;13449;49.374;8.584;2023-02-18T07:30:33;4.57;;;3.13;;
24485;SDS011;13449;49.374;8.584;2023-02-18T07:33:04;5.78;;;3.20;;
24485;SDS011;13449;49.374;8.584;2023-02-18T07:35:37;4.93;;;3.10;;
24485;SDS011;13449;49.374;8.584;2023-02-18T07:38:12;4.95;;;3.15;;
24485;SDS011;13449;49.374;8.584;2023-02-18T07:40:38;2.97;;;2.70;;
24485;SDS011;13449;49.374;8.584;2023-02-18T07:43:05;6.22;;;3.15;;
24485;SDS011;13449;49.374;8.584;2023-02-18T07:45:37;3.78;;;2.95;;
24485;SDS011;13449;49.374;8.584;2023-02-18T07:48:06;5.53;;;2.90;;
24485;SDS011;13449;49.374;8.584;2023-02-18T07:50:33;5.45;;;3.17;;
24485;SDS011;13449;49.374;8.584;2023-02-18T07:53:00;3.55;;;2.88;;
24485;SDS011;13449;49.374;8.584;2023-02-18T07:55:35;4.13;;;3.05;;
24485;SDS011;13449;49.374;8.584;2023-02-18T08:00:50;4.47;;;2.95;;
24485;SDS011;13449;49.374;8.584;2023-02-18T08:03:20;3.80;;;2.90;;
24485;SDS011;13449;49.374;8.584;2023-02-18T08:05:57;5.85;;;3.25;;
24485;SDS011;13449;49.374;8.584;2023-02-18T08:08:27;4.65;;;2.72;;
24485;SDS011;13449;49.374;8.584;2023-02-18T08:10:57;4.30;;;2.65;;
24485;SDS011;13449;49.374;8.584;2023-02-18T08:13:43;5.35;;;3.30;;
24485;SDS011;13449;49.374;8.584;2023-02-18T08:16:12;4.00;;;3.13;;
24485;SDS011;13449;49.374;8.584;2023-02-18T08:18:39;4.55;;;2.83;;
24485;SDS011;13449;49.374;8.584;2023-02-18T08:21:07;3.28;;;2.67;;
24485;SDS011;13449;49.374;8.584;2023-02-18T08:23:34;4.05;;;3.42;;
24485;SDS011;13449;49.374;8.584;2023-02-18T08:26:13;4.68;;;2.58;;
24485;SDS011;13449;49.374;8.584;2023-02-18T08:28:41;4.38;;;2.53;;
24485;SDS011;13449;49.374;8.584;2023-02-18T08:31:20;3.33;;;2.42;;
24485;SDS011;13449;49.374;8.584;2023-02-18T08:33:57;5.40;;;3.13;;
24485;SDS011;13449;49.374;8.584;2023-02-18T08:36:28;5.85;;;3.20;;
24485;SDS011;13449;49.374;8.584;2023-02-18T08:38:56;4.45;;;3.20;;
24485;SDS011;13449;49.374;8.584;2023-02-18T08:41:23;5.70;;;2.88;;
24485;SDS011;13449;49.374;8.584;2023-02-18T08:43:49;5.25;;;2.63;;
24485;SDS011;13449;49.374;8.584;2023-02-18T08:46:22;5.38;;;2.38;;
24485;SDS011;13449;49.374;8.584;2023-02-18T08:49:01;4.60;;;3.33;;
24485;SDS011;13449;49.374;8.584;2023-02-18T08:51:28;6.82;;;2.63;;
24485;SDS011;13449;49.374;8.584;2023-02-18T08:53:58;3.00;;;2.33;;
24485;SDS011;13449;49.374;8.584;2023-02-18T08:56:27;11.35;;;2.53;;
24485;SDS011;13449;49.374;8.584;2023-02-18T08:58:53;3.85;;;2.80;;
24485;SDS011;13449;49.374;8.584;2023-02-18T09:01:24;2.22;;;2.03;;
24485;SDS011;13449;49.374;8.584;2023-02-18T09:03:51;4.60;;;2.90;;
24485;SDS011;13449;49.374;8.584;2023-02-18T09:06:17;4.65;;;2.90;;
24485;SDS011;13449;49.374;8.584;2023-02-18T09:08:44;4.45;;;2.67;;
24485;SDS011;13449;49.374;8.584;2023-02-18T09:11:11;3.38;;;2.65;;
24485;SDS011;13449;49.374;8.584;2023-02-18T09:13:37;4.03;;;3.00;;
24485;SDS011;13449;49.374;8.584;2023-02-18T09:16:06;7.07;;;2.53;;
24485;SDS011;13449;49.374;8.584;2023-02-18T09:18:34;3.55;;;2.47;;
24485;SDS011;13449;49.374;8.584;2023-02-18T09:21:02;3.40;;;2.97;;
24485;SDS011;13449;49.374;8.584;2023-02-18T09:23:31;3.97;;;2.72;;
24485;SDS011;13449;49.374;8.584;2023-02-18T09:25:58;4.03;;;2.58;;
24485;SDS011;13449;49.374;8.584;2023-02-18T09:28:26;5.72;;;3.33;;
24485;SDS011;13449;49.374;8.584;2023-02-18T09:30:52;4.00;;;2.63;;
24485;SDS011;13449;49.374;8.584;2023-02-18T09:33:21;4.03;;;2.55;;
24485;SDS011;13449;49.374;8.584;2023-02-18T09:35:48;4.65;;;2.70;;
24485;SDS011;13449;49.374;8.584;2023-02-18T09:38:15;2.28;;;1.98;;
24485;SDS011;13449;49.374;8.584;2023-02-18T09:40:44;4.43;;;2.75;;
24485;SDS011;13449;49.374;8.584;2023-02-18T09:43:22;6.18;;;3.20;;
24485;SDS011;13449;49.374;8.584;2023-02-18T09:46:16;6.38;;;3.00;;
24485;SDS011;13449;49.374;8.584;2023-02-18T09:48:47;2.58;;;2.22;;
24485;SDS011;13449;49.374;8.584;2023-02-18T09:51:17;3.22;;;2.65;;
24485;SDS011;13449;49.374;8.584;2023-02-18T09:53:45;2.67;;;2.47;;
24485;SDS011;13449;49.374;8.584;2023-02-18T09:56:14;5.47;;;3.08;;
24485;SDS011;13449;49.374;8.584;2023-02-18T09:58:46;7.18;;;3.53;;
24485;SDS011;13449;49.374;8.584;2023-02-18T10:01:27;5.30;;;3.38;;
24485;SDS011;13449;49.374;8.584;2023-02-18T10:03:59;4.78;;;3.20;;
24485;SDS011;13449;49.374;8.584;2023-02-18T10:06:33;5.63;;;3.65;;
24485;SDS011;13449;49.374;8.584;2023-02-18T10:09:01;5.23;;;3.43;;
24485;SDS011;13449;49.374;8.584;2023-02-18T10:11:34;9.05;;;3.25;;
24485;SDS011;13449;49.374;8.584;2023-02-18T10:14:13;4.40;;;3.15;;
24485;SDS011;13449;49.374;8.584;2023-02-18T10:16:42;6.30;;;3.00;;
24485;SDS011;13449;49.374;8.584;2023-02-18T10:21:45;5.05;;;2.70;;
24485;SDS011;13449;49.374;8.584;2023-02-18T10:26:52;7.00;;;3.60;;
24485;SDS011;13449;49.374;8.584;2023-02-18T10:29:21;19.38;;;7.15;;
24485;SDS011;13449;49.374;8.584;2023-02-18T10:37:45;10.32;;;3.83;;
24485;SDS011;13449;49.374;8.584;2023-02-18T10:43:31;8.20;;;2.83;;
24485;SDS011;13449;49.374;8.584;2023-02-18T10:52:08;4.88;;;2.70;;
24485;SDS011;13449;49.374;8.584;2023-02-18T10:57:21;4.93;;;3.22;;
24485;SDS011;13449;49.374;8.584;2023-02-18T11:00:14;5.80;;;3.58;;
24485;SDS011;13449;49.374;8.584;2023-02-18T11:02:41;3.80;;;2.78;;
24485;SDS011;13449;49.374;8.584;2023-02-18T11:05:22;3.63;;;2.53;;
24485;SDS011;13449;49.374;8.584;2023-02-18T11:08:06;7.45;;;3.30;;
24485;SDS011;13449;49.374;8.584;2023-02-18T11:10:51;2.50;;;2.17;;
24485;SDS011;13449;49.374;8.584;2023-02-18T11:13:23;5.10;;;3.75;;
24485;SDS011;13449;49.374;8.584;2023-02-18T11:16:05;4.32;;;2.80;;
24485;SDS011;13449;49.374;8.584;2023-02-18T11:23:55;11.65;;;5.15;;
24485;SDS011;13449;49.374;8.584;2023-02-18T11:28:59;7.78;;;4.40;;
24485;SDS011;13449;49.374;8.584;2023-02-18T11:31:40;9.20;;;4.95;;
24485;SDS011;13449;49.374;8.584;2023-02-18T11:34:14;7.43;;;4.43;;
24485;SDS011;13449;49.374;8.584;2023-02-18T11:36:46;8.52;;;5.30;;
24485;SDS011;13449;49.374;8.584;2023-02-18T11:39:19;8.13;;;5.20;;
24485;SDS011;13449;49.374;8.584;2023-02-18T11:41:52;7.78;;;5.43;;
24485;SDS011;13449;49.374;8.584;2023-02-18T11:44:39;12.55;;;6.13;;
24485;SDS011;13449;49.374;8.584;2023-02-18T11:47:25;10.63;;;4.18;;
24485;SDS011;13449;49.374;8.584;2023-02-18T11:50:00;7.70;;;4.45;;
24485;SDS011;13449;49.374;8.584;2023-02-18T11:52:35;8.25;;;4.78;;
24485;SDS011;13449;49.374;8.584;2023-02-18T11:55:10;7.72;;;4.80;;
24485;SDS011;13449;49.374;8.584;2023-02-18T11:57:48;5.55;;;4.18;;
24485;SDS011;13449;49.374;8.584;2023-02-18T12:03:25;6.32;;;4.25;;
24485;SDS011;13449;49.374;8.584;2023-02-18T12:06:22;10.48;;;4.15;;
24485;SDS011;13449;49.374;8.584;2023-02-18T12:08:57;6.15;;;4.13;;
24485;SDS011;13449;49.374;8.584;2023-02-18T12:11:30;5.30;;;3.95;;
24485;SDS011;13449;49.374;8.584;2023-02-18T12:14:08;6.97;;;3.95;;
24485;SDS011;13449;49.374;8.584;2023-02-18T12:31:34;6.50;;;3.97;;
24485;SDS011;13449;49.374;8.584;2023-02-18T12:52:01;6.40;;;3.05;;
24485;SDS011;13449;49.374;8.584;2023-02-18T13:01:18;4.40;;;2.83;;
24485;SDS011;13449;49.374;8.584;2023-02-18T13:14:18;4.38;;;2.97;;
24485;SDS011;13449;49.374;8.584;2023-02-18T13:16:48;2.85;;;2.30;;
24485;SDS011;13449;49.374;8.584;2023-02-18T13:22:01;9.30;;;2.47;;
24485;SDS011;13449;49.374;8.584;2023-02-18T13:27:06;3.17;;;2.75;;
24485;SDS011;13449;49.374;8.584;2023-02-18T13:40:01;3.75;;;2.53;;
24485;SDS011;13449;49.374;8.584;2023-02-18T13:47:35;8.20;;;2.60;;
24485;SDS011;13449;49.374;8.584;2023-02-18T13:52:58;4.57;;;2.97;;
24485;SDS011;13449;49.374;8.584;2023-02-18T13:58:25;4.15;;;2.58;;
24485;SDS011;13449;49.374;8.584;2023-02-18T14:00:59;7.32;;;2.38;;
24485;SDS011;13449;49.374;8.584;2023-02-18T14:03:34;3.72;;;2.20;;
24485;SDS011;13449;49.374;8.584;2023-02-18T14:06:03;3.53;;;2.83;;
24485;SDS011;13449;49.374;8.584;2023-02-18T14:08:39;4.40;;;2.42;;
24485;SDS011;13449;49.374;8.584;2023-02-18T14:13:45;4.00;;;2.72;;
24485;SDS011;13449;49.374;8.584;2023-02-18T14:16:13;3.28;;;2.25;;
24485;SDS011;13449;49.374;8.584;2023-02-18T14:23:43;5.53;;;3.25;;
24485;SDS011;13449;49.374;8.584;2023-02-18T14:26:28;3.88;;;3.08;;
24485;SDS011;13449;49.374;8.584;2023-02-18T14:29:14;4.10;;;2.47;;
24485;SDS011;13449;49.374;8.584;2023-02-18T14:31:49;6.75;;;2.83;;
24485;SDS011;13449;49.374;8.584;2023-02-18T14:45:20;5.15;;;2.58;;
24485;SDS011;13449;49.374;8.584;2023-02-18T14:48:16;7.03;;;3.08;;
24485;SDS011;13449;49.374;8.584;2023-02-18T14:50:53;5.15;;;2.80;;
24485;SDS011;13449;49.374;8.584;2023-02-18T14:53:22;3.90;;;2.55;;
24485;SDS011;13449;49.374;8.584;2023-02-18T14:55:57;7.65;;;2.42;;
24485;SDS011;13449;49.374;8.584;2023-02-18T14:58:30;6.25;;;3.38;;
24485;SDS011;13449;49.374;8.584;2023-02-18T15:01:45;4.05;;;2.80;;
24485;SDS011;13449;49.374;8.584;2023-02-18T15:03:59;5.45;;;2.90;;
24485;SDS011;13449;49.374;8.584;2023-02-18T15:06:36;4.63;;;3.30;;
24485;SDS011;13449;49.374;8.584;2023-02-18T15:11:58;3.03;;;2.72;;
24485;SDS011;13449;49.374;8.584;2023-02-18T15:14:27;3.90;;;2.80;;
24485;SDS011;13449;49.374;8.584;2023-02-18T15:16:57;4.20;;;3.13;;
24485;SDS011;13449;49.374;8.584;2023-02-18T15:19:25;5.28;;;3.05;;
24485;SDS011;13449;49.374;8.584;2023-02-18T15:21:55;3.78;;;2.70;;
24485;SDS011;13449;49.374;8.584;2023-02-18T15:26:54;7.95;;;3.13;;
24485;SDS011;13449;49.374;8.584;2023-02-18T15:29:25;3.05;;;2.47;;
24485;SDS011;13449;49.374;8.584;2023-02-18T15:31:54;3.45;;;2.47;;
24485;SDS011;13449;49.374;8.584;2023-02-18T15:37:00;8.43;;;2.90;;
24485;SDS011;13449;49.374;8.584;2023-02-18T15:39:28;5.80;;;3.38;;
24485;SDS011;13449;49.374;8.584;2023-02-18T15:41:58;6.63;;;3.72;;
24485;SDS011;13449;49.374;8.584;2023-02-18T15:44:31;5.30;;;3.63;;
24485;SDS011;13449;49.374;8.584;2023-02-18T15:47:02;4.47;;;3.03;;
24485;SDS011;13449;49.374;8.584;2023-02-18T15:49:32;4.82;;;3.10;;
24485;SDS011;13449;49.374;8.584;2023-02-18T15:52:04;3.50;;;3.20;;
24485;SDS011;13449;49.374;8.584;2023-02-18T15:54:34;9.23;;;3.72;;
24485;SDS011;13449;49.374;8.584;2023-02-18T15:57:04;12.23;;;3.58;;
24485;SDS011;13449;49.374;8.584;2023-02-18T15:59:32;8.57;;;3.92;;
24485;SDS011;13449;49.374;8.584;2023-02-18T16:04:36;13.00;;;2.97;;
24485;SDS011;13449;49.374;8.584;2023-02-18T16:07:17;4.47;;;3.33;;
24485;SDS011;13449;49.374;8.584;2023-02-18T16:09:48;3.85;;;3.03;;
24485;SDS011;13449;49.374;8.584;2023-02-18T16:12:25;7.68;;;3.08;;
24485;SDS011;13449;49.374;8.584;2023-02-18T16:14:56;6.25;;;3.38;;
24485;SDS011;13449;49.374;8.584;2023-02-18T16:17:26;5.28;;;3.30;;
24485;SDS011;13449;49.374;8.584;2023-02-18T16:19:55;4.18;;;3.40;;
24485;SDS011;13449;49.374;8.584;2023-02-18T16:22:32;5.53;;;3.35;;
24485;SDS011;13449;49.374;8.584;2023-02-18T16:30:25;8.35;;;3.25;;
24485;SDS011;13449;49.374;8.584;2023-02-18T16:32:57;6.03;;;3.17;;
24485;SDS011;13449;49.374;8.584;2023-02-18T16:35:25;5.43;;;3.50;;
24485;SDS011;13449;49.374;8.584;2023-02-18T16:38:02;4.82;;;3.15;;
24485;SDS011;13449;49.374;8.584;2023-02-18T16:43:01;12.97;;;5.67;;
24485;SDS011;13449;49.374;8.584;2023-02-18T16:45:48;17.48;;;7.43;;
24485;SDS011;13449;49.374;8.584;2023-02-18T16:48:29;8.82;;;3.75;;
24485;SDS011;13449;49.374;8.584;2023-02-18T16:51:14;6.53;;;3.80;;
24485;SDS011;13449;49.374;8.584;2023-02-18T16:53:41;6.60;;;3.88;;
24485;SDS011;13449;49.374;8.584;2023-02-18T16:56:13;6.53;;;4.55;;
24485;SDS011;13449;49.374;8.584;2023-02-18T16:58:49;6.32;;;3.65;;
24485;SDS011;13449;49.374;8.584;2023-02-18T17:01:26;8.55;;;3.65;;
24485;SDS011;13449;49.374;8.584;2023-02-18T17:03:59;4.15;;;3.55;;
24485;SDS011;13449;49.374;8.584;2023-02-18T17:06:30;7.50;;;3.03;;
24485;SDS011;13449;49.374;8.584;2023-02-18T17:08:59;3.35;;;2.70;;
24485;SDS011;13449;49.374;8.584;2023-02-18T17:11:33;5.80;;;3.78;;
24485;SDS011;13449;49.374;8.584;2023-02-18T17:14:21;6.80;;;3.58;;
24485;SDS011;13449;49.374;8.584;2023-02-18T17:16:49;4.82;;;3.50;;
24485;SDS011;13449;49.374;8.584;2023-02-18T17:21:49;5.13;;;2.83;;
24485;SDS011;13449;49.374;8.584;2023-02-18T17:24:21;6.68;;;3.75;;
24485;SDS011;13449;49.374;8.584;2023-02-18T17:26:47;15.82;;;6.07;;
24485;SDS011;13449;49.374;8.584;2023-02-18T17:29:16;7.97;;;4.22;;
24485;SDS011;13449;49.374;8.584;2023-02-18T17:31:43;6.60;;;3.83;;
24485;SDS011;13449;49.374;8.584;2023-02-18T17:34:25;6.03;;;3.80;;
24485;SDS011;13449;49.374;8.584;2023-02-18T17:36:54;8.60;;;4.07;;
24485;SDS011;13449;49.374;8.584;2023-02-18T17:39:22;4.85;;;3.30;;
24485;SDS011;13449;49.374;8.584;2023-02-18T17:41:56;4.88;;;3.53;;
24485;SDS011;13449;49.374;8.584;2023-02-18T17:44:42;6.93;;;3.60;;
24485;SDS011;13449;49.374;8.584;2023-02-18T17:47:08;4.88;;;3.65;;
24485;SDS011;13449;49.374;8.584;2023-02-18T17:49:35;5.05;;;3.70;;
24485;SDS011;13449;49.374;8.584;2023-02-18T17:52:04;5.38;;;4.03;;
24485;SDS011;13449;49.374;8.584;2023-02-18T17:54:30;5.85;;;4.25;;
24485;SDS011;13449;49.374;8.584;2023-02-18T17:57:00;4.35;;;3.85;;
24485;SDS011;13449;49.374;8.584;2023-02-18T17:59:26;6.75;;;3.85;;
24485;SDS011;13449;49.374;8.584;2023-02-18T18:01:59;11.10;;;5.13;;
24485;SDS011;13449;49.374;8.584;2023-02-18T18:04:25;8.57;;;4.60;;
24485;SDS011;13449;49.374;8.584;2023-02-18T18:06:52;8.77;;;4.50;;
24485;SDS011;13449;49.374;8.584;2023-02-18T18:09:20;26.90;;;12.18;;
24485;SDS011;13449;49.374;8.584;2023-02-18T18:11:56;16.33;;;7.82;;
24485;SDS011;13449;49.374;8.584;2023-02-18T18:16:49;40.17;;;14.60;;
24485;SDS011;13449;49.374;8.584;2023-02-18T18:19:20;21.70;;;8.90;;